sensor_id;sensor_type;location;lat;lon;timestamp;pressure;altitude;pressure_sealevel;temperature;humidity
12468;BME280;57850;52.922;6.256;2023-03-26T00:01:22;100862.69;;;10.83;nan
12468;BME280;57850;52.922;6.256;2023-03-26T00:03:52;100877.53;;;10.81;nan
12468;BME280;57850;52.922;6.256;2023-03-26T00:06:21;100882.06;;;10.53;nan
12468;BME280;57850;52.922;6.256;2023-03-26T00:08:51;100866.16;;;10.84;nan
12468;BME280;57850;52.922;6.256;2023-03-26T00:11:21;100861.06;;;11.25;nan
12468;BME280;57850;52.922;6.256;2023-03-26T00:13:48;100885.03;;;10.90;nan
12468;BME280;57850;52.922;6.256;2023-03-26T00:16:18;100887.16;;;10.56;nan
12468;BME280;57850;52.922;6.256;2023-03-26T00:18:50;100879.50;;;10.99;nan
12468;BME280;57850;52.922;6.256;2023-03-26T00:21:19;100886.25;;;11.05;nan
12468;BME280;57850;52.922;6.256;2023-03-26T00:23:46;100895.94;;;10.78;nan
12468;BME280;57850;52.922;6.256;2023-03-26T00:26:14;100896.75;;;10.80;nan
12468;BME280;57850;52.922;6.256;2023-03-26T00:28:43;100903.34;;;10.41;nan
12468;BME280;57850;52.922;6.256;2023-03-26T00:31:12;100882.66;;;10.84;nan
12468;BME280;57850;52.922;6.256;2023-03-26T00:33:40;100902.44;;;10.66;nan
12468;BME280;57850;52.922;6.256;2023-03-26T00:36:15;100888.44;;;10.69;nan
12468;BME280;57850;52.922;6.256;2023-03-26T00:38:45;100892.88;;;10.67;nan
12468;BME280;57850;52.922;6.256;2023-03-26T00:41:14;100907.09;;;10.34;nan
12468;BME280;57850;52.922;6.256;2023-03-26T00:43:49;100893.66;;;10.44;nan
12468;BME280;57850;52.922;6.256;2023-03-26T00:46:18;100905.41;;;10.31;nan
12468;BME280;57850;52.922;6.256;2023-03-26T00:48:45;100909.00;;;10.29;nan
12468;BME280;57850;52.922;6.256;2023-03-26T00:51:14;100907.38;;;10.25;nan
12468;BME280;57850;52.922;6.256;2023-03-26T00:53:46;100909.41;;;10.16;nan
12468;BME280;57850;52.922;6.256;2023-03-26T00:56:13;100906.03;;;10.39;nan
12468;BME280;57850;52.922;6.256;2023-03-26T00:58:40;100908.16;;;10.00;nan
12468;BME280;57850;52.922;6.256;2023-03-26T01:01:08;100880.38;;;10.52;nan
12468;BME280;57850;52.922;6.256;2023-03-26T01:03:40;100904.97;;;10.18;nan
12468;BME280;57850;52.922;6.256;2023-03-26T01:06:21;100908.72;;;10.10;nan
12468;BME280;57850;52.922;6.256;2023-03-26T01:08:52;100882.22;;;10.48;nan
12468;BME280;57850;52.922;6.256;2023-03-26T01:11:26;100879.53;;;10.74;nan
12468;BME280;57850;52.922;6.256;2023-03-26T01:13:59;100910.50;;;10.36;nan
12468;BME280;57850;52.922;6.256;2023-03-26T01:16:30;100913.72;;;10.17;nan
12468;BME280;57850;52.922;6.256;2023-03-26T01:19:01;100899.41;;;10.29;nan
12468;BME280;57850;52.922;6.256;2023-03-26T01:21:29;100879.50;;;10.51;nan
12468;BME280;57850;52.922;6.256;2023-03-26T01:24:01;100884.72;;;10.51;nan
12468;BME280;57850;52.922;6.256;2023-03-26T01:26:53;100869.28;;;10.70;nan
12468;BME280;57850;52.922;6.256;2023-03-26T01:29:29;100880.38;;;10.52;nan
12468;BME280;57850;52.922;6.256;2023-03-26T01:32:04;100870.97;;;10.71;nan
12468;BME280;57850;52.922;6.256;2023-03-26T01:34:43;100861.09;;;10.79;nan
12468;BME280;57850;52.922;6.256;2023-03-26T01:37:19;100856.50;;;10.86;nan
12468;BME280;57850;52.922;6.256;2023-03-26T01:39:55;100872.06;;;10.41;nan
12468;BME280;57850;52.922;6.256;2023-03-26T01:42:28;100855.84;;;10.56;nan
12468;BME280;57850;52.922;6.256;2023-03-26T01:45:04;100835.13;;;10.76;nan
12468;BME280;57850;52.922;6.256;2023-03-26T01:47:33;100857.03;;;10.47;nan
12468;BME280;57850;52.922;6.256;2023-03-26T01:50:01;100846.28;;;10.56;nan
12468;BME280;57850;52.922;6.256;2023-03-26T01:52:28;100844.78;;;10.74;nan
12468;BME280;57850;52.922;6.256;2023-03-26T01:54:57;100844.44;;;10.83;nan
12468;BME280;57850;52.922;6.256;2023-03-26T01:57:33;100853.09;;;10.60;nan
12468;BME280;57850;52.922;6.256;2023-03-26T02:00:21;100849.19;;;10.95;nan
12468;BME280;57850;52.922;6.256;2023-03-26T02:03:08;100845.72;;;11.18;nan
12468;BME280;57850;52.922;6.256;2023-03-26T02:05:46;100854.56;;;11.14;nan
12468;BME280;57850;52.922;6.256;2023-03-26T02:08:20;100852.22;;;11.06;nan
12468;BME280;57850;52.922;6.256;2023-03-26T02:10:51;100857.56;;;11.03;nan
12468;BME280;57850;52.922;6.256;2023-03-26T02:13:20;100846.34;;;11.01;nan
12468;BME280;57850;52.922;6.256;2023-03-26T02:15:55;100851.59;;;11.00;nan
12468;BME280;57850;52.922;6.256;2023-03-26T02:18:21;100843.53;;;11.06;nan
12468;BME280;57850;52.922;6.256;2023-03-26T02:20:49;100836.28;;;11.14;nan
12468;BME280;57850;52.922;6.256;2023-03-26T02:23:18;100839.00;;;11.11;nan
12468;BME280;57850;52.922;6.256;2023-03-26T02:25:44;100842.94;;;10.99;nan
12468;BME280;57850;52.922;6.256;2023-03-26T02:28:12;100850.66;;;10.79;nan
12468;BME280;57850;52.922;6.256;2023-03-26T02:30:41;100838.34;;;10.83;nan
12468;BME280;57850;52.922;6.256;2023-03-26T02:33:10;100833.28;;;10.78;nan
12468;BME280;57850;52.922;6.256;2023-03-26T02:35:39;100841.06;;;10.56;nan
12468;BME280;57850;52.922;6.256;2023-03-26T02:38:09;100827.75;;;10.64;nan
12468;BME280;57850;52.922;6.256;2023-03-26T02:40:38;100842.25;;;10.23;nan
12468;BME280;57850;52.922;6.256;2023-03-26T02:43:05;100832.16;;;10.14;nan
12468;BME280;57850;52.922;6.256;2023-03-26T02:45:33;100805.72;;;10.48;nan
12468;BME280;57850;52.922;6.256;2023-03-26T02:47:59;100817.94;;;10.23;nan
12468;BME280;57850;52.922;6.256;2023-03-26T02:50:26;100801.69;;;10.62;nan
12468;BME280;57850;52.922;6.256;2023-03-26T02:52:57;100797.59;;;10.79;nan
12468;BME280;57850;52.922;6.256;2023-03-26T02:55:23;100800.06;;;10.60;nan
12468;BME280;57850;52.922;6.256;2023-03-26T02:57:50;100804.75;;;10.50;nan
12468;BME280;57850;52.922;6.256;2023-03-26T03:00:16;100786.75;;;10.67;nan
12468;BME280;57850;52.922;6.256;2023-03-26T03:02:47;100793.88;;;10.62;nan
12468;BME280;57850;52.922;6.256;2023-03-26T03:05:14;100789.72;;;10.57;nan
12468;BME280;57850;52.922;6.256;2023-03-26T03:07:42;100792.78;;;10.45;nan
12468;BME280;57850;52.922;6.256;2023-03-26T03:10:11;100792.72;;;10.46;nan
12468;BME280;57850;52.922;6.256;2023-03-26T03:12:38;100785.31;;;10.36;nan
12468;BME280;57850;52.922;6.256;2023-03-26T03:15:06;100778.22;;;10.39;nan
12468;BME280;57850;52.922;6.256;2023-03-26T03:17:32;100781.06;;;10.33;nan
12468;BME280;57850;52.922;6.256;2023-03-26T03:20:00;100774.16;;;10.31;nan
12468;BME280;57850;52.922;6.256;2023-03-26T03:22:27;100763.75;;;10.31;nan
12468;BME280;57850;52.922;6.256;2023-03-26T03:24:53;100773.06;;;10.13;nan
12468;BME280;57850;52.922;6.256;2023-03-26T03:27:21;100762.41;;;10.20;nan
12468;BME280;57850;52.922;6.256;2023-03-26T03:29:50;100764.59;;;10.06;nan
12468;BME280;57850;52.922;6.256;2023-03-26T03:32:17;100780.97;;;9.85;nan
12468;BME280;57850;52.922;6.256;2023-03-26T03:34:47;100777.84;;;9.76;nan
12468;BME280;57850;52.922;6.256;2023-03-26T03:37:15;100770.34;;;9.66;nan
12468;BME280;57850;52.922;6.256;2023-03-26T03:39:42;100779.31;;;9.58;nan
12468;BME280;57850;52.922;6.256;2023-03-26T03:42:09;100782.22;;;9.49;nan
12468;BME280;57850;52.922;6.256;2023-03-26T03:44:35;100773.09;;;9.62;nan
12468;BME280;57850;52.922;6.256;2023-03-26T03:47:02;100775.91;;;9.56;nan
12468;BME280;57850;52.922;6.256;2023-03-26T03:49:28;100803.06;;;8.93;nan
12468;BME280;57850;52.922;6.256;2023-03-26T03:51:55;100785.00;;;8.89;nan
12468;BME280;57850;52.922;6.256;2023-03-26T03:54:23;100771.84;;;8.93;nan
12468;BME280;57850;52.922;6.256;2023-03-26T03:56:50;100758.56;;;9.29;nan
12468;BME280;57850;52.922;6.256;2023-03-26T03:59:16;100750.69;;;9.56;nan
12468;BME280;57850;52.922;6.256;2023-03-26T04:01:42;100747.75;;;9.67;nan
12468;BME280;57850;52.922;6.256;2023-03-26T04:04:12;100742.69;;;9.87;nan
12468;BME280;57850;52.922;6.256;2023-03-26T04:06:39;100732.56;;;10.03;nan
12468;BME280;57850;52.922;6.256;2023-03-26T04:09:06;100744.19;;;9.94;nan
12468;BME280;57850;52.922;6.256;2023-03-26T04:11:35;100726.47;;;10.04;nan
12468;BME280;57850;52.922;6.256;2023-03-26T04:14:02;100738.53;;;10.06;nan
12468;BME280;57850;52.922;6.256;2023-03-26T04:16:28;100749.59;;;9.88;nan
12468;BME280;57850;52.922;6.256;2023-03-26T04:18:55;100731.72;;;10.02;nan
12468;BME280;57850;52.922;6.256;2023-03-26T04:21:22;100732.00;;;9.95;nan
12468;BME280;57850;52.922;6.256;2023-03-26T04:23:50;100741.94;;;9.84;nan
12468;BME280;57850;52.922;6.256;2023-03-26T04:26:18;100737.47;;;9.87;nan
12468;BME280;57850;52.922;6.256;2023-03-26T04:28:48;100719.59;;;10.01;nan
12468;BME280;57850;52.922;6.256;2023-03-26T04:31:18;100729.28;;;9.98;nan
12468;BME280;57850;52.922;6.256;2023-03-26T04:33:49;100715.94;;;10.07;nan
12468;BME280;57850;52.922;6.256;2023-03-26T04:36:20;100719.50;;;10.04;nan
12468;BME280;57850;52.922;6.256;2023-03-26T04:38:47;100716.78;;;10.07;nan
12468;BME280;57850;52.922;6.256;2023-03-26T04:41:16;100720.47;;;10.02;nan
12468;BME280;57850;52.922;6.256;2023-03-26T04:43:43;100724.41;;;9.89;nan
12468;BME280;57850;52.922;6.256;2023-03-26T04:46:16;100731.50;;;9.84;nan
12468;BME280;57850;52.922;6.256;2023-03-26T04:48:46;100727.78;;;9.91;nan
12468;BME280;57850;52.922;6.256;2023-03-26T04:51:13;100723.53;;;9.88;nan
12468;BME280;57850;52.922;6.256;2023-03-26T04:53:42;100728.75;;;9.88;nan
12468;BME280;57850;52.922;6.256;2023-03-26T04:56:20;100720.84;;;9.91;nan
12468;BME280;57850;52.922;6.256;2023-03-26T04:58:56;100716.41;;;9.93;nan
12468;BME280;57850;52.922;6.256;2023-03-26T05:01:25;100722.66;;;9.89;nan
12468;BME280;57850;52.922;6.256;2023-03-26T05:03:52;100709.56;;;9.91;nan
12468;BME280;57850;52.922;6.256;2023-03-26T05:06:19;100715.69;;;9.90;nan
12468;BME280;57850;52.922;6.256;2023-03-26T05:08:46;100719.97;;;9.91;nan
12468;BME280;57850;52.922;6.256;2023-03-26T05:11:13;100706.50;;;10.03;nan
12468;BME280;57850;52.922;6.256;2023-03-26T05:13:39;100702.97;;;10.05;nan
12468;BME280;57850;52.922;6.256;2023-03-26T05:16:07;100699.00;;;10.18;nan
12468;BME280;57850;52.922;6.256;2023-03-26T05:18:35;100699.00;;;10.18;nan
12468;BME280;57850;52.922;6.256;2023-03-26T05:21:02;100697.69;;;10.07;nan
12468;BME280;57850;52.922;6.256;2023-03-26T05:23:29;100702.75;;;10.11;nan
12468;BME280;57850;52.922;6.256;2023-03-26T05:25:56;100691.50;;;10.09;nan
12468;BME280;57850;52.922;6.256;2023-03-26T05:28:22;100690.44;;;10.15;nan
12468;BME280;57850;52.922;6.256;2023-03-26T05:30:51;100684.91;;;10.24;nan
12468;BME280;57850;52.922;6.256;2023-03-26T05:33:18;100694.38;;;10.27;nan
12468;BME280;57850;52.922;6.256;2023-03-26T05:35:46;100707.03;;;10.12;nan
12468;BME280;57850;52.922;6.256;2023-03-26T05:38:14;100705.44;;;9.84;nan
12468;BME280;57850;52.922;6.256;2023-03-26T05:40:42;100694.34;;;9.79;nan
12468;BME280;57850;52.922;6.256;2023-03-26T05:43:08;100692.63;;;10.02;nan
12468;BME280;57850;52.922;6.256;2023-03-26T05:45:35;100688.78;;;10.12;nan
12468;BME280;57850;52.922;6.256;2023-03-26T05:48:02;100677.91;;;10.25;nan
12468;BME280;57850;52.922;6.256;2023-03-26T05:50:29;100677.81;;;10.28;nan
12468;BME280;57850;52.922;6.256;2023-03-26T05:52:56;100678.31;;;10.37;nan
12468;BME280;57850;52.922;6.256;2023-03-26T05:55:23;100682.69;;;10.37;nan
12468;BME280;57850;52.922;6.256;2023-03-26T05:57:49;100679.75;;;10.46;nan
12468;BME280;57850;52.922;6.256;2023-03-26T06:00:16;100699.28;;;10.57;nan
12468;BME280;57850;52.922;6.256;2023-03-26T06:02:43;100694.09;;;10.56;nan
12468;BME280;57850;52.922;6.256;2023-03-26T06:05:10;100699.28;;;10.57;nan
12468;BME280;57850;52.922;6.256;2023-03-26T06:07:37;100692.06;;;10.64;nan
12468;BME280;57850;52.922;6.256;2023-03-26T06:10:06;100690.72;;;10.75;nan
12468;BME280;57850;52.922;6.256;2023-03-26T06:12:33;100688.25;;;10.72;nan
12468;BME280;57850;52.922;6.256;2023-03-26T06:15:01;100682.38;;;10.67;nan
12468;BME280;57850;52.922;6.256;2023-03-26T06:17:27;100671.19;;;10.64;nan
12468;BME280;57850;52.922;6.256;2023-03-26T06:19:54;100673.59;;;10.68;nan
12468;BME280;57850;52.922;6.256;2023-03-26T06:22:20;100671.59;;;10.75;nan
12468;BME280;57850;52.922;6.256;2023-03-26T06:24:47;100659.00;;;10.86;nan
12468;BME280;57850;52.922;6.256;2023-03-26T06:27:15;100652.56;;;10.95;nan
12468;BME280;57850;52.922;6.256;2023-03-26T06:29:42;100665.13;;;10.85;nan
12468;BME280;57850;52.922;6.256;2023-03-26T06:32:08;100662.13;;;10.94;nan
12468;BME280;57850;52.922;6.256;2023-03-26T06:34:35;100674.88;;;11.02;nan
12468;BME280;57850;52.922;6.256;2023-03-26T06:37:01;100680.00;;;11.05;nan
12468;BME280;57850;52.922;6.256;2023-03-26T06:39:28;100686.31;;;10.99;nan
12468;BME280;57850;52.922;6.256;2023-03-26T06:41:54;100689.63;;;11.03;nan
12468;BME280;57850;52.922;6.256;2023-03-26T06:44:23;100692.66;;;11.14;nan
12468;BME280;57850;52.922;6.256;2023-03-26T06:46:49;100696.84;;;11.18;nan
12468;BME280;57850;52.922;6.256;2023-03-26T06:49:16;100698.53;;;11.19;nan
12468;BME280;57850;52.922;6.256;2023-03-26T06:51:42;100696.78;;;11.19;nan
12468;BME280;57850;52.922;6.256;2023-03-26T06:54:10;100703.50;;;11.25;nan
12468;BME280;57850;52.922;6.256;2023-03-26T06:56:37;100706.53;;;11.36;nan
12468;BME280;57850;52.922;6.256;2023-03-26T06:59:03;100704.69;;;11.38;nan
12468;BME280;57850;52.922;6.256;2023-03-26T07:01:31;100710.00;;;11.37;nan
12468;BME280;57850;52.922;6.256;2023-03-26T07:03:58;100702.56;;;11.27;nan
12468;BME280;57850;52.922;6.256;2023-03-26T07:06:25;100721.31;;;11.15;nan
12468;BME280;57850;52.922;6.256;2023-03-26T07:08:52;100722.47;;;11.30;nan
12468;BME280;57850;52.922;6.256;2023-03-26T07:11:19;100738.56;;;10.98;nan
12468;BME280;57850;52.922;6.256;2023-03-26T07:13:49;100746.66;;;11.13;nan
12468;BME280;57850;52.922;6.256;2023-03-26T07:16:16;100727.31;;;11.39;nan
12468;BME280;57850;52.922;6.256;2023-03-26T07:18:44;100731.50;;;11.43;nan
12468;BME280;57850;52.922;6.256;2023-03-26T07:21:11;100740.94;;;11.25;nan
12468;BME280;57850;52.922;6.256;2023-03-26T07:23:38;100725.56;;;11.60;nan
12468;BME280;57850;52.922;6.256;2023-03-26T07:26:17;100728.56;;;11.51;nan
12468;BME280;57850;52.922;6.256;2023-03-26T07:28:54;100717.81;;;11.78;nan
12468;BME280;57850;52.922;6.256;2023-03-26T07:31:29;100735.50;;;11.52;nan
12468;BME280;57850;52.922;6.256;2023-03-26T07:34:06;100721.13;;;11.82;nan
12468;BME280;57850;52.922;6.256;2023-03-26T07:36:42;100721.31;;;11.98;nan
12468;BME280;57850;52.922;6.256;2023-03-26T07:39:21;100722.75;;;12.05;nan
12468;BME280;57850;52.922;6.256;2023-03-26T07:41:58;100725.97;;;11.91;nan
12468;BME280;57850;52.922;6.256;2023-03-26T07:44:40;100731.47;;;11.85;nan
12468;BME280;57850;52.922;6.256;2023-03-26T07:47:19;100724.59;;;12.03;nan
12468;BME280;57850;52.922;6.256;2023-03-26T07:49:52;100708.31;;;12.54;nan
12468;BME280;57850;52.922;6.256;2023-03-26T07:52:19;100705.41;;;12.41;nan
12468;BME280;57850;52.922;6.256;2023-03-26T07:54:46;100713.31;;;12.21;nan
12468;BME280;57850;52.922;6.256;2023-03-26T07:57:18;100715.22;;;12.17;nan
12468;BME280;57850;52.922;6.256;2023-03-26T07:59:50;100720.81;;;12.28;nan
12468;BME280;57850;52.922;6.256;2023-03-26T08:02:47;100716.25;;;12.52;nan
12468;BME280;57850;52.922;6.256;2023-03-26T08:05:23;100721.94;;;12.42;nan
12468;BME280;57850;52.922;6.256;2023-03-26T08:08:01;100729.22;;;12.16;nan
12468;BME280;57850;52.922;6.256;2023-03-26T08:10:34;100724.09;;;12.33;nan
12468;BME280;57850;52.922;6.256;2023-03-26T08:13:13;100722.75;;;12.62;nan
12468;BME280;57850;52.922;6.256;2023-03-26T08:15:45;100727.75;;;12.29;nan
12468;BME280;57850;52.922;6.256;2023-03-26T08:18:31;100742.38;;;12.15;nan
12468;BME280;57850;52.922;6.256;2023-03-26T08:21:09;100720.34;;;12.39;nan
12468;BME280;57850;52.922;6.256;2023-03-26T08:23:41;100710.63;;;12.41;nan
12468;BME280;57850;52.922;6.256;2023-03-26T08:26:16;100720.47;;;12.36;nan
12468;BME280;57850;52.922;6.256;2023-03-26T08:28:52;100725.47;;;12.22;nan
12468;BME280;57850;52.922;6.256;2023-03-26T08:31:27;100721.59;;;12.30;nan
12468;BME280;57850;52.922;6.256;2023-03-26T08:33:58;100710.69;;;12.77;nan
12468;BME280;57850;52.922;6.256;2023-03-26T08:36:26;100697.22;;;12.84;nan
12468;BME280;57850;52.922;6.256;2023-03-26T08:38:53;100712.47;;;12.39;nan
12468;BME280;57850;52.922;6.256;2023-03-26T08:42:03;100711.06;;;12.32;nan
12468;BME280;57850;52.922;6.256;2023-03-26T08:54:21;100719.56;;;12.74;nan
12468;BME280;57850;52.922;6.256;2023-03-26T08:57:06;100708.97;;;12.95;nan
12468;BME280;57850;52.922;6.256;2023-03-26T08:59:50;100695.56;;;13.19;nan
12468;BME280;57850;52.922;6.256;2023-03-26T09:06:03;100702.88;;;12.94;nan
12468;BME280;57850;52.922;6.256;2023-03-26T09:15:05;100699.50;;;13.28;nan
12468;BME280;57850;52.922;6.256;2023-03-26T09:17:58;100679.19;;;13.83;nan
12468;BME280;57850;52.922;6.256;2023-03-26T09:20:47;100682.53;;;13.69;nan
12468;BME280;57850;52.922;6.256;2023-03-26T09:23:45;100694.28;;;13.28;nan
12468;BME280;57850;52.922;6.256;2023-03-26T09:26:29;100691.59;;;13.47;nan
12468;BME280;57850;52.922;6.256;2023-03-26T09:29:40;100690.50;;;13.33;nan
12468;BME280;57850;52.922;6.256;2023-03-26T09:32:27;100691.25;;;13.35;nan
12468;BME280;57850;52.922;6.256;2023-03-26T09:35:12;100673.09;;;13.82;nan
12468;BME280;57850;52.922;6.256;2023-03-26T09:37:56;100681.22;;;13.78;nan
12468;BME280;57850;52.922;6.256;2023-03-26T09:40:30;100682.53;;;13.35;nan
12468;BME280;57850;52.922;6.256;2023-03-26T09:43:33;100655.31;;;14.05;nan
12468;BME280;57850;52.922;6.256;2023-03-26T09:46:16;100654.03;;;13.96;nan
12468;BME280;57850;52.922;6.256;2023-03-26T09:49:05;100664.69;;;13.76;nan
12468;BME280;57850;52.922;6.256;2023-03-26T09:52:02;100666.19;;;13.97;nan
12468;BME280;57850;52.922;6.256;2023-03-26T09:54:54;100656.25;;;14.19;nan
12468;BME280;57850;52.922;6.256;2023-03-26T09:57:39;100639.56;;;14.37;nan
12468;BME280;57850;52.922;6.256;2023-03-26T10:00:20;100632.66;;;14.51;nan
12468;BME280;57850;52.922;6.256;2023-03-26T10:03:02;100674.19;;;13.78;nan
12468;BME280;57850;52.922;6.256;2023-03-26T10:05:55;100691.56;;;13.29;nan
12468;BME280;57850;52.922;6.256;2023-03-26T10:08:40;100682.09;;;13.61;nan
12468;BME280;57850;52.922;6.256;2023-03-26T10:11:17;100671.75;;;13.91;nan
12468;BME280;57850;52.922;6.256;2023-03-26T10:13:55;100664.00;;;14.38;nan
12468;BME280;57850;52.922;6.256;2023-03-26T10:16:26;100675.56;;;14.18;nan
12468;BME280;57850;52.922;6.256;2023-03-26T10:19:09;100668.22;;;13.92;nan
12468;BME280;57850;52.922;6.256;2023-03-26T10:21:52;100675.22;;;13.91;nan
12468;BME280;57850;52.922;6.256;2023-03-26T10:24:34;100663.38;;;14.17;nan
12468;BME280;57850;52.922;6.256;2023-03-26T10:27:28;100690.88;;;13.43;nan
12468;BME280;57850;52.922;6.256;2023-03-26T10:30:31;100684.44;;;13.66;nan
12468;BME280;57850;52.922;6.256;2023-03-26T10:33:10;100675.19;;;13.76;nan
12468;BME280;57850;52.922;6.256;2023-03-26T10:35:46;100662.00;;;14.26;nan
12468;BME280;57850;52.922;6.256;2023-03-26T10:38:20;100674.22;;;13.94;nan
12468;BME280;57850;52.922;6.256;2023-03-26T10:40:56;100669.50;;;14.01;nan
12468;BME280;57850;52.922;6.256;2023-03-26T10:43:59;100673.41;;;13.93;nan
12468;BME280;57850;52.922;6.256;2023-03-26T10:46:46;100666.59;;;13.89;nan
12468;BME280;57850;52.922;6.256;2023-03-26T10:49:43;100677.44;;;13.83;nan
12468;BME280;57850;52.922;6.256;2023-03-26T10:52:17;100677.16;;;13.88;nan
12468;BME280;57850;52.922;6.256;2023-03-26T10:54:53;100661.63;;;14.33;nan
12468;BME280;57850;52.922;6.256;2023-03-26T10:57:28;100662.78;;;14.28;nan
12468;BME280;57850;52.922;6.256;2023-03-26T11:00:04;100652.13;;;14.15;nan
12468;BME280;57850;52.922;6.256;2023-03-26T11:02:37;100671.00;;;13.89;nan
12468;BME280;57850;52.922;6.256;2023-03-26T11:05:23;100671.22;;;14.17;nan
12468;BME280;57850;52.922;6.256;2023-03-26T11:07:56;100674.06;;;13.97;nan
12468;BME280;57850;52.922;6.256;2023-03-26T11:10:34;100659.03;;;14.16;nan
12468;BME280;57850;52.922;6.256;2023-03-26T11:13:09;100636.56;;;14.75;nan
12468;BME280;57850;52.922;6.256;2023-03-26T11:15:41;100645.78;;;14.51;nan
12468;BME280;57850;52.922;6.256;2023-03-26T11:18:14;100662.63;;;14.15;nan
12468;BME280;57850;52.922;6.256;2023-03-26T11:20:48;100660.34;;;14.25;nan
12468;BME280;57850;52.922;6.256;2023-03-26T11:23:32;100659.53;;;14.07;nan
12468;BME280;57850;52.922;6.256;2023-03-26T11:26:06;100648.34;;;14.36;nan
12468;BME280;57850;52.922;6.256;2023-03-26T11:31:37;100647.25;;;14.56;nan
12468;BME280;57850;52.922;6.256;2023-03-26T11:34:10;100655.53;;;14.48;nan
12468;BME280;57850;52.922;6.256;2023-03-26T11:36:42;100657.84;;;14.55;nan
12468;BME280;57850;52.922;6.256;2023-03-26T11:39:14;100653.00;;;14.63;nan
12468;BME280;57850;52.922;6.256;2023-03-26T11:41:46;100690.69;;;13.80;nan
12468;BME280;57850;52.922;6.256;2023-03-26T11:44:19;100716.75;;;13.66;nan
12468;BME280;57850;52.922;6.256;2023-03-26T11:46:50;100710.72;;;13.81;nan
12468;BME280;57850;52.922;6.256;2023-03-26T11:49:19;100717.94;;;13.44;nan
12468;BME280;57850;52.922;6.256;2023-03-26T11:51:47;100702.72;;;14.17;nan
12468;BME280;57850;52.922;6.256;2023-03-26T11:54:14;100711.75;;;13.79;nan
12468;BME280;57850;52.922;6.256;2023-03-26T11:56:46;100709.75;;;13.67;nan
12468;BME280;57850;52.922;6.256;2023-03-26T11:59:16;100715.44;;;13.92;nan
12468;BME280;57850;52.922;6.256;2023-03-26T12:01:47;100717.88;;;14.12;nan
12468;BME280;57850;52.922;6.256;2023-03-26T12:04:17;100719.47;;;13.65;nan
12468;BME280;57850;52.922;6.256;2023-03-26T12:06:51;100731.13;;;13.42;nan
12468;BME280;57850;52.922;6.256;2023-03-26T12:09:21;100754.44;;;12.94;nan
12468;BME280;57850;52.922;6.256;2023-03-26T12:11:52;100750.97;;;13.29;nan
12468;BME280;57850;52.922;6.256;2023-03-26T12:14:24;100758.94;;;13.27;nan
12468;BME280;57850;52.922;6.256;2023-03-26T12:17:00;100757.44;;;13.03;nan
12468;BME280;57850;52.922;6.256;2023-03-26T12:19:34;100732.06;;;13.58;nan
12468;BME280;57850;52.922;6.256;2023-03-26T12:22:02;100717.78;;;13.81;nan
12468;BME280;57850;52.922;6.256;2023-03-26T12:24:30;100731.03;;;13.61;nan
12468;BME280;57850;52.922;6.256;2023-03-26T12:27:00;100737.13;;;13.61;nan
12468;BME280;57850;52.922;6.256;2023-03-26T12:29:29;100714.34;;;13.96;nan
12468;BME280;57850;52.922;6.256;2023-03-26T12:32:04;100727.72;;;13.74;nan
12468;BME280;57850;52.922;6.256;2023-03-26T12:34:34;100722.69;;;14.20;nan
12468;BME280;57850;52.922;6.256;2023-03-26T12:37:03;100749.16;;;13.31;nan
12468;BME280;57850;52.922;6.256;2023-03-26T12:39:33;100738.75;;;13.64;nan
12468;BME280;57850;52.922;6.256;2023-03-26T12:42:05;100762.19;;;12.95;nan
12468;BME280;57850;52.922;6.256;2023-03-26T12:44:43;100757.81;;;13.14;nan
12468;BME280;57850;52.922;6.256;2023-03-26T12:47:17;100749.88;;;13.69;nan
12468;BME280;57850;52.922;6.256;2023-03-26T12:49:46;100743.91;;;13.82;nan
12468;BME280;57850;52.922;6.256;2023-03-26T12:52:26;100766.53;;;13.15;nan
12468;BME280;57850;52.922;6.256;2023-03-26T12:55:00;100766.50;;;13.51;nan
12468;BME280;57850;52.922;6.256;2023-03-26T12:57:36;100757.50;;;13.56;nan
12468;BME280;57850;52.922;6.256;2023-03-26T13:00:25;100755.78;;;13.89;nan
12468;BME280;57850;52.922;6.256;2023-03-26T13:03:14;100778.00;;;13.12;nan
12468;BME280;57850;52.922;6.256;2023-03-26T13:05:53;100765.53;;;13.34;nan
12468;BME280;57850;52.922;6.256;2023-03-26T13:08:50;100776.19;;;13.31;nan
12468;BME280;57850;52.922;6.256;2023-03-26T13:11:26;100762.75;;;13.56;nan
12468;BME280;57850;52.922;6.256;2023-03-26T13:14:26;100748.78;;;13.90;nan
12468;BME280;57850;52.922;6.256;2023-03-26T13:17:02;100744.88;;;13.97;nan
12468;BME280;57850;52.922;6.256;2023-03-26T13:19:36;100750.69;;;13.69;nan
12468;BME280;57850;52.922;6.256;2023-03-26T13:22:15;100734.28;;;14.33;nan
12468;BME280;57850;52.922;6.256;2023-03-26T13:24:51;100729.78;;;14.02;nan
12468;BME280;57850;52.922;6.256;2023-03-26T13:27:33;100734.13;;;13.86;nan
12468;BME280;57850;52.922;6.256;2023-03-26T13:30:09;100748.09;;;13.86;nan
12468;BME280;57850;52.922;6.256;2023-03-26T13:32:48;100757.41;;;13.58;nan
12468;BME280;57850;52.922;6.256;2023-03-26T13:35:26;100778.34;;;13.23;nan
12468;BME280;57850;52.922;6.256;2023-03-26T13:37:58;100789.16;;;12.97;nan
12468;BME280;57850;52.922;6.256;2023-03-26T13:40:34;100794.50;;;12.77;nan
12468;BME280;57850;52.922;6.256;2023-03-26T13:43:32;100795.53;;;12.92;nan
12468;BME280;57850;52.922;6.256;2023-03-26T13:46:09;100786.84;;;13.10;nan
12468;BME280;57850;52.922;6.256;2023-03-26T13:48:42;100792.50;;;12.82;nan
12468;BME280;57850;52.922;6.256;2023-03-26T13:51:18;100781.81;;;13.24;nan
12468;BME280;57850;52.922;6.256;2023-03-26T13:53:50;100783.56;;;13.23;nan
12468;BME280;57850;52.922;6.256;2023-03-26T13:56:20;100803.53;;;12.88;nan
12468;BME280;57850;52.922;6.256;2023-03-26T13:58:56;100793.28;;;13.21;nan
12468;BME280;57850;52.922;6.256;2023-03-26T14:01:30;100819.84;;;12.56;nan
12468;BME280;57850;52.922;6.256;2023-03-26T14:04:03;100805.09;;;12.93;nan
12468;BME280;57850;52.922;6.256;2023-03-26T14:06:39;100808.28;;;12.99;nan